sensor_id;sensor_type;location;lat;lon;timestamp;P1;durP1;ratioP1;P2;durP2;ratioP2
68858;SDS011;55864;49.238;8.092;2023-06-19T00:01:55;8.38;;;5.53;;
68858;SDS011;55864;49.238;8.092;2023-06-19T00:03:55;10.77;;;5.63;;
68858;SDS011;55864;49.238;8.092;2023-06-19T00:05:56;10.13;;;5.80;;
68858;SDS011;55864;49.238;8.092;2023-06-19T00:07:56;9.65;;;5.68;;
68858;SDS011;55864;49.238;8.092;2023-06-19T00:09:57;8.98;;;5.88;;
68858;SDS011;55864;49.238;8.092;2023-06-19T00:11:57;9.45;;;6.00;;
68858;SDS011;55864;49.238;8.092;2023-06-19T00:13:59;10.38;;;5.90;;
68858;SDS011;55864;49.238;8.092;2023-06-19T00:16:00;9.82;;;5.80;;
68858;SDS011;55864;49.238;8.092;2023-06-19T00:18:00;12.45;;;6.05;;
68858;SDS011;55864;49.238;8.092;2023-06-19T00:20:01;9.93;;;5.95;;
68858;SDS011;55864;49.238;8.092;2023-06-19T00:22:02;11.35;;;5.53;;
68858;SDS011;55864;49.238;8.092;2023-06-19T00:24:03;12.48;;;5.85;;
68858;SDS011;55864;49.238;8.092;2023-06-19T00:26:04;16.05;;;5.80;;
68858;SDS011;55864;49.238;8.092;2023-06-19T00:28:04;8.45;;;5.38;;
68858;SDS011;55864;49.238;8.092;2023-06-19T00:30:07;9.23;;;5.30;;
68858;SDS011;55864;49.238;8.092;2023-06-19T00:32:08;9.30;;;5.85;;
68858;SDS011;55864;49.238;8.092;2023-06-19T00:34:08;9.10;;;5.88;;
68858;SDS011;55864;49.238;8.092;2023-06-19T00:36:09;9.70;;;5.57;;
68858;SDS011;55864;49.238;8.092;2023-06-19T00:38:11;11.43;;;5.05;;
68858;SDS011;55864;49.238;8.092;2023-06-19T00:40:13;9.10;;;5.30;;
68858;SDS011;55864;49.238;8.092;2023-06-19T00:42:20;12.90;;;5.70;;
68858;SDS011;55864;49.238;8.092;2023-06-19T00:44:21;11.75;;;5.40;;
68858;SDS011;55864;49.238;8.092;2023-06-19T00:46:23;11.02;;;5.85;;
68858;SDS011;55864;49.238;8.092;2023-06-19T00:48:24;16.38;;;5.68;;
68858;SDS011;55864;49.238;8.092;2023-06-19T00:50:27;11.23;;;5.35;;
68858;SDS011;55864;49.238;8.092;2023-06-19T00:52:28;9.05;;;5.43;;
68858;SDS011;55864;49.238;8.092;2023-06-19T00:54:29;9.05;;;5.82;;
68858;SDS011;55864;49.238;8.092;2023-06-19T00:56:31;10.50;;;5.95;;
68858;SDS011;55864;49.238;8.092;2023-06-19T00:58:32;14.85;;;6.10;;
68858;SDS011;55864;49.238;8.092;2023-06-19T01:00:33;10.20;;;5.63;;
68858;SDS011;55864;49.238;8.092;2023-06-19T01:02:35;9.80;;;5.50;;
68858;SDS011;55864;49.238;8.092;2023-06-19T01:04:35;10.10;;;5.35;;
68858;SDS011;55864;49.238;8.092;2023-06-19T01:06:37;12.30;;;5.60;;
68858;SDS011;55864;49.238;8.092;2023-06-19T01:08:50;11.00;;;5.07;;
68858;SDS011;55864;49.238;8.092;2023-06-19T01:10:59;10.65;;;4.93;;
68858;SDS011;55864;49.238;8.092;2023-06-19T01:13:02;12.95;;;3.75;;
68858;SDS011;55864;49.238;8.092;2023-06-19T01:15:08;10.82;;;3.90;;
68858;SDS011;55864;49.238;8.092;2023-06-19T01:17:09;8.05;;;3.03;;
68858;SDS011;55864;49.238;8.092;2023-06-19T01:19:11;8.23;;;3.45;;
68858;SDS011;55864;49.238;8.092;2023-06-19T01:21:18;6.22;;;3.50;;
68858;SDS011;55864;49.238;8.092;2023-06-19T01:23:20;7.68;;;3.67;;
68858;SDS011;55864;49.238;8.092;2023-06-19T01:25:21;6.65;;;3.60;;
68858;SDS011;55864;49.238;8.092;2023-06-19T01:27:23;10.07;;;3.25;;
68858;SDS011;55864;49.238;8.092;2023-06-19T01:29:25;6.75;;;3.08;;
68858;SDS011;55864;49.238;8.092;2023-06-19T01:31:28;6.93;;;3.85;;
68858;SDS011;55864;49.238;8.092;2023-06-19T01:33:33;8.02;;;3.58;;
68858;SDS011;55864;49.238;8.092;2023-06-19T01:35:38;6.75;;;3.60;;
68858;SDS011;55864;49.238;8.092;2023-06-19T01:37:42;5.90;;;3.10;;
68858;SDS011;55864;49.238;8.092;2023-06-19T01:39:45;6.93;;;3.30;;
68858;SDS011;55864;49.238;8.092;2023-06-19T01:41:46;6.40;;;3.13;;
68858;SDS011;55864;49.238;8.092;2023-06-19T01:43:48;6.70;;;3.20;;
68858;SDS011;55864;49.238;8.092;2023-06-19T01:45:51;8.25;;;3.28;;
68858;SDS011;55864;49.238;8.092;2023-06-19T01:47:52;6.15;;;2.90;;
68858;SDS011;55864;49.238;8.092;2023-06-19T01:49:53;5.43;;;2.90;;
68858;SDS011;55864;49.238;8.092;2023-06-19T01:51:53;7.15;;;3.05;;
68858;SDS011;55864;49.238;8.092;2023-06-19T01:53:54;6.80;;;3.05;;
68858;SDS011;55864;49.238;8.092;2023-06-19T01:55:55;6.40;;;3.30;;
68858;SDS011;55864;49.238;8.092;2023-06-19T01:57:56;7.93;;;3.67;;
68858;SDS011;55864;49.238;8.092;2023-06-19T01:59:57;7.97;;;3.65;;
68858;SDS011;55864;49.238;8.092;2023-06-19T02:01:57;7.00;;;3.40;;
68858;SDS011;55864;49.238;8.092;2023-06-19T02:03:58;6.65;;;3.80;;
68858;SDS011;55864;49.238;8.092;2023-06-19T02:05:58;6.05;;;3.40;;
68858;SDS011;55864;49.238;8.092;2023-06-19T02:08:00;5.95;;;3.20;;
68858;SDS011;55864;49.238;8.092;2023-06-19T02:10:01;6.07;;;3.30;;
68858;SDS011;55864;49.238;8.092;2023-06-19T02:12:03;6.57;;;3.85;;
68858;SDS011;55864;49.238;8.092;2023-06-19T02:14:04;5.82;;;3.13;;
68858;SDS011;55864;49.238;8.092;2023-06-19T02:16:04;6.88;;;3.65;;
68858;SDS011;55864;49.238;8.092;2023-06-19T02:18:08;6.72;;;3.25;;
68858;SDS011;55864;49.238;8.092;2023-06-19T02:20:09;8.55;;;3.33;;
68858;SDS011;55864;49.238;8.092;2023-06-19T02:22:10;8.48;;;3.70;;
68858;SDS011;55864;49.238;8.092;2023-06-19T02:24:11;7.22;;;3.20;;
68858;SDS011;55864;49.238;8.092;2023-06-19T02:26:12;6.82;;;3.58;;
68858;SDS011;55864;49.238;8.092;2023-06-19T02:28:14;6.70;;;3.38;;
68858;SDS011;55864;49.238;8.092;2023-06-19T02:30:15;7.57;;;3.47;;
68858;SDS011;55864;49.238;8.092;2023-06-19T02:32:15;7.22;;;3.72;;
68858;SDS011;55864;49.238;8.092;2023-06-19T02:34:16;7.32;;;4.10;;
68858;SDS011;55864;49.238;8.092;2023-06-19T02:36:16;6.90;;;3.60;;
68858;SDS011;55864;49.238;8.092;2023-06-19T02:38:17;7.25;;;3.80;;
68858;SDS011;55864;49.238;8.092;2023-06-19T02:40:18;7.45;;;4.10;;
68858;SDS011;55864;49.238;8.092;2023-06-19T02:42:18;8.32;;;3.97;;
68858;SDS011;55864;49.238;8.092;2023-06-19T02:44:20;10.63;;;3.80;;
68858;SDS011;55864;49.238;8.092;2023-06-19T02:46:21;9.73;;;4.47;;
68858;SDS011;55864;49.238;8.092;2023-06-19T02:48:22;7.63;;;4.20;;
68858;SDS011;55864;49.238;8.092;2023-06-19T02:50:22;6.93;;;4.00;;
68858;SDS011;55864;49.238;8.092;2023-06-19T02:52:23;8.15;;;4.05;;
68858;SDS011;55864;49.238;8.092;2023-06-19T02:54:23;7.72;;;4.20;;
68858;SDS011;55864;49.238;8.092;2023-06-19T02:56:25;7.22;;;4.13;;
68858;SDS011;55864;49.238;8.092;2023-06-19T02:58:26;7.53;;;4.28;;
68858;SDS011;55864;49.238;8.092;2023-06-19T03:00:28;7.70;;;4.53;;
68858;SDS011;55864;49.238;8.092;2023-06-19T03:02:29;7.18;;;4.13;;
68858;SDS011;55864;49.238;8.092;2023-06-19T03:04:29;7.35;;;4.50;;
68858;SDS011;55864;49.238;8.092;2023-06-19T03:06:30;7.43;;;3.95;;
68858;SDS011;55864;49.238;8.092;2023-06-19T03:08:32;7.55;;;4.15;;
68858;SDS011;55864;49.238;8.092;2023-06-19T03:10:33;9.25;;;4.07;;
68858;SDS011;55864;49.238;8.092;2023-06-19T03:12:34;7.15;;;3.70;;
68858;SDS011;55864;49.238;8.092;2023-06-19T03:14:34;9.38;;;4.00;;
68858;SDS011;55864;49.238;8.092;2023-06-19T03:16:37;7.57;;;4.07;;
68858;SDS011;55864;49.238;8.092;2023-06-19T03:18:37;6.97;;;3.80;;
68858;SDS011;55864;49.238;8.092;2023-06-19T03:20:38;8.45;;;3.92;;
68858;SDS011;55864;49.238;8.092;2023-06-19T03:22:39;5.85;;;3.22;;
68858;SDS011;55864;49.238;8.092;2023-06-19T03:24:40;6.93;;;3.42;;
68858;SDS011;55864;49.238;8.092;2023-06-19T03:26:59;8.07;;;4.10;;
68858;SDS011;55864;49.238;8.092;2023-06-19T03:29:00;7.38;;;3.90;;
68858;SDS011;55864;49.238;8.092;2023-06-19T03:31:07;7.57;;;3.72;;
68858;SDS011;55864;49.238;8.092;2023-06-19T03:33:09;6.45;;;3.50;;
68858;SDS011;55864;49.238;8.092;2023-06-19T03:35:14;7.57;;;3.95;;
68858;SDS011;55864;49.238;8.092;2023-06-19T03:37:17;8.20;;;3.92;;
68858;SDS011;55864;49.238;8.092;2023-06-19T03:39:18;7.72;;;3.75;;
68858;SDS011;55864;49.238;8.092;2023-06-19T03:41:19;7.50;;;4.03;;
68858;SDS011;55864;49.238;8.092;2023-06-19T03:43:20;8.00;;;3.80;;
68858;SDS011;55864;49.238;8.092;2023-06-19T03:45:21;8.45;;;4.10;;
68858;SDS011;55864;49.238;8.092;2023-06-19T03:47:22;7.95;;;4.10;;
68858;SDS011;55864;49.238;8.092;2023-06-19T03:49:23;8.60;;;4.45;;
68858;SDS011;55864;49.238;8.092;2023-06-19T03:51:24;7.60;;;4.30;;
68858;SDS011;55864;49.238;8.092;2023-06-19T03:53:25;9.13;;;4.32;;
68858;SDS011;55864;49.238;8.092;2023-06-19T03:55:27;8.23;;;4.25;;
68858;SDS011;55864;49.238;8.092;2023-06-19T03:57:28;10.60;;;4.22;;
68858;SDS011;55864;49.238;8.092;2023-06-19T03:59:28;8.40;;;4.20;;
68858;SDS011;55864;49.238;8.092;2023-06-19T04:01:29;7.68;;;3.90;;
68858;SDS011;55864;49.238;8.092;2023-06-19T04:03:29;7.28;;;3.45;;
68858;SDS011;55864;49.238;8.092;2023-06-19T04:05:31;7.60;;;3.90;;
68858;SDS011;55864;49.238;8.092;2023-06-19T04:07:32;6.45;;;3.30;;
68858;SDS011;55864;49.238;8.092;2023-06-19T04:09:33;7.68;;;3.72;;
68858;SDS011;55864;49.238;8.092;2023-06-19T04:11:34;8.15;;;3.95;;
68858;SDS011;55864;49.238;8.092;2023-06-19T04:13:36;7.05;;;3.85;;
68858;SDS011;55864;49.238;8.092;2023-06-19T04:15:36;6.50;;;3.67;;
68858;SDS011;55864;49.238;8.092;2023-06-19T04:17:37;6.85;;;3.70;;
68858;SDS011;55864;49.238;8.092;2023-06-19T04:19:37;7.50;;;4.13;;
68858;SDS011;55864;49.238;8.092;2023-06-19T04:21:39;6.88;;;3.90;;
68858;SDS011;55864;49.238;8.092;2023-06-19T04:23:40;7.10;;;4.05;;
68858;SDS011;55864;49.238;8.092;2023-06-19T04:25:41;9.73;;;4.10;;
68858;SDS011;55864;49.238;8.092;2023-06-19T04:27:41;6.88;;;3.78;;
68858;SDS011;55864;49.238;8.092;2023-06-19T04:29:41;7.38;;;3.83;;
68858;SDS011;55864;49.238;8.092;2023-06-19T04:31:42;8.68;;;4.25;;
68858;SDS011;55864;49.238;8.092;2023-06-19T04:33:43;7.28;;;3.70;;
68858;SDS011;55864;49.238;8.092;2023-06-19T04:35:44;9.02;;;3.80;;
68858;SDS011;55864;49.238;8.092;2023-06-19T04:37:46;7.95;;;3.63;;
68858;SDS011;55864;49.238;8.092;2023-06-19T04:39:47;8.18;;;3.95;;
68858;SDS011;55864;49.238;8.092;2023-06-19T04:41:47;9.07;;;3.65;;
68858;SDS011;55864;49.238;8.092;2023-06-19T04:43:48;7.97;;;3.95;;
68858;SDS011;55864;49.238;8.092;2023-06-19T04:45:48;8.68;;;3.90;;
68858;SDS011;55864;49.238;8.092;2023-06-19T04:47:49;7.03;;;3.67;;
68858;SDS011;55864;49.238;8.092;2023-06-19T04:49:49;7.90;;;3.92;;
68858;SDS011;55864;49.238;8.092;2023-06-19T04:51:50;6.97;;;3.67;;
68858;SDS011;55864;49.238;8.092;2023-06-19T04:53:51;7.05;;;3.85;;
68858;SDS011;55864;49.238;8.092;2023-06-19T04:55:52;8.73;;;3.90;;
68858;SDS011;55864;49.238;8.092;2023-06-19T04:57:52;7.30;;;3.75;;
68858;SDS011;55864;49.238;8.092;2023-06-19T04:59:53;7.55;;;3.90;;
68858;SDS011;55864;49.238;8.092;2023-06-19T05:01:53;6.47;;;3.20;;
68858;SDS011;55864;49.238;8.092;2023-06-19T05:03:54;9.07;;;3.70;;
68858;SDS011;55864;49.238;8.092;2023-06-19T05:05:55;7.68;;;3.85;;
68858;SDS011;55864;49.238;8.092;2023-06-19T05:07:55;7.45;;;3.63;;
68858;SDS011;55864;49.238;8.092;2023-06-19T05:09:57;7.55;;;3.47;;
68858;SDS011;55864;49.238;8.092;2023-06-19T05:11:58;7.13;;;3.88;;
68858;SDS011;55864;49.238;8.092;2023-06-19T05:13:59;7.75;;;4.43;;
68858;SDS011;55864;49.238;8.092;2023-06-19T05:15:59;7.32;;;3.45;;
68858;SDS011;55864;49.238;8.092;2023-06-19T05:18:00;6.30;;;3.60;;
68858;SDS011;55864;49.238;8.092;2023-06-19T05:20:00;6.53;;;3.45;;
68858;SDS011;55864;49.238;8.092;2023-06-19T05:22:01;6.45;;;3.35;;
68858;SDS011;55864;49.238;8.092;2023-06-19T05:24:03;7.13;;;3.58;;
68858;SDS011;55864;49.238;8.092;2023-06-19T05:26:05;6.68;;;3.50;;
68858;SDS011;55864;49.238;8.092;2023-06-19T05:28:06;8.52;;;3.63;;
68858;SDS011;55864;49.238;8.092;2023-06-19T05:30:07;6.55;;;3.30;;
68858;SDS011;55864;49.238;8.092;2023-06-19T05:32:08;6.28;;;3.40;;
68858;SDS011;55864;49.238;8.092;2023-06-19T05:34:09;7.45;;;3.75;;
68858;SDS011;55864;49.238;8.092;2023-06-19T05:36:09;6.18;;;3.75;;
68858;SDS011;55864;49.238;8.092;2023-06-19T05:38:10;8.55;;;4.00;;
68858;SDS011;55864;49.238;8.092;2023-06-19T05:40:10;7.53;;;3.55;;
68858;SDS011;55864;49.238;8.092;2023-06-19T05:42:13;6.75;;;3.40;;
68858;SDS011;55864;49.238;8.092;2023-06-19T05:44:13;6.68;;;3.45;;
68858;SDS011;55864;49.238;8.092;2023-06-19T05:46:14;7.20;;;3.63;;
68858;SDS011;55864;49.238;8.092;2023-06-19T05:48:14;7.47;;;3.60;;
68858;SDS011;55864;49.238;8.092;2023-06-19T05:50:15;6.95;;;3.80;;
68858;SDS011;55864;49.238;8.092;2023-06-19T05:52:15;6.53;;;3.78;;
68858;SDS011;55864;49.238;8.092;2023-06-19T05:54:16;8.00;;;3.63;;
68858;SDS011;55864;49.238;8.092;2023-06-19T05:56:16;8.98;;;4.00;;
68858;SDS011;55864;49.238;8.092;2023-06-19T05:58:18;13.98;;;4.22;;
68858;SDS011;55864;49.238;8.092;2023-06-19T06:00:18;7.53;;;4.00;;
68858;SDS011;55864;49.238;8.092;2023-06-19T06:02:19;10.95;;;4.07;;
68858;SDS011;55864;49.238;8.092;2023-06-19T06:04:20;7.88;;;4.40;;
68858;SDS011;55864;49.238;8.092;2023-06-19T06:06:21;6.88;;;3.90;;
68858;SDS011;55864;49.238;8.092;2023-06-19T06:08:22;8.85;;;4.00;;
68858;SDS011;55864;49.238;8.092;2023-06-19T06:10:23;8.15;;;4.32;;
68858;SDS011;55864;49.238;8.092;2023-06-19T06:12:24;7.90;;;4.45;;
68858;SDS011;55864;49.238;8.092;2023-06-19T06:14:26;7.75;;;4.60;;
68858;SDS011;55864;49.238;8.092;2023-06-19T06:16:26;8.37;;;4.33;;
68858;SDS011;55864;49.238;8.092;2023-06-19T06:18:27;8.35;;;4.30;;
68858;SDS011;55864;49.238;8.092;2023-06-19T06:20:27;8.52;;;4.40;;
68858;SDS011;55864;49.238;8.092;2023-06-19T06:22:28;10.45;;;4.70;;
68858;SDS011;55864;49.238;8.092;2023-06-19T06:24:29;8.60;;;5.15;;
68858;SDS011;55864;49.238;8.092;2023-06-19T06:26:29;8.77;;;4.65;;
68858;SDS011;55864;49.238;8.092;2023-06-19T06:28:29;7.22;;;4.30;;
68858;SDS011;55864;49.238;8.092;2023-06-19T06:30:31;8.55;;;4.70;;
68858;SDS011;55864;49.238;8.092;2023-06-19T06:32:32;8.98;;;5.30;;
68858;SDS011;55864;49.238;8.092;2023-06-19T06:34:32;9.70;;;4.72;;
68858;SDS011;55864;49.238;8.092;2023-06-19T06:36:33;8.10;;;5.07;;
68858;SDS011;55864;49.238;8.092;2023-06-19T06:38:34;11.75;;;5.00;;
68858;SDS011;55864;49.238;8.092;2023-06-19T06:40:34;7.88;;;4.88;;
68858;SDS011;55864;49.238;8.092;2023-06-19T06:42:35;10.38;;;5.20;;
68858;SDS011;55864;49.238;8.092;2023-06-19T06:44:35;8.02;;;4.60;;
68858;SDS011;55864;49.238;8.092;2023-06-19T06:46:37;8.95;;;4.90;;
68858;SDS011;55864;49.238;8.092;2023-06-19T06:48:38;8.70;;;4.47;;
68858;SDS011;55864;49.238;8.092;2023-06-19T06:50:38;8.95;;;4.88;;
68858;SDS011;55864;49.238;8.092;2023-06-19T06:52:38;9.60;;;4.82;;
68858;SDS011;55864;49.238;8.092;2023-06-19T06:54:40;8.73;;;5.30;;
68858;SDS011;55864;49.238;8.092;2023-06-19T06:56:41;9.55;;;4.78;;
68858;SDS011;55864;49.238;8.092;2023-06-19T06:58:41;10.88;;;4.93;;
68858;SDS011;55864;49.238;8.092;2023-06-19T07:00:42;8.48;;;4.93;;
68858;SDS011;55864;49.238;8.092;2023-06-19T07:02:44;10.60;;;5.28;;
68858;SDS011;55864;49.238;8.092;2023-06-19T07:04:44;9.30;;;4.80;;
68858;SDS011;55864;49.238;8.092;2023-06-19T07:06:45;9.90;;;4.90;;
68858;SDS011;55864;49.238;8.092;2023-06-19T07:08:45;7.38;;;4.63;;
68858;SDS011;55864;49.238;8.092;2023-06-19T07:10:46;10.95;;;4.82;;
68858;SDS011;55864;49.238;8.092;2023-06-19T07:12:47;7.57;;;4.85;;
68858;SDS011;55864;49.238;8.092;2023-06-19T07:14:48;8.93;;;5.13;;
68858;SDS011;55864;49.238;8.092;2023-06-19T07:16:48;9.35;;;5.00;;
68858;SDS011;55864;49.238;8.092;2023-06-19T07:18:50;9.15;;;4.85;;
68858;SDS011;55864;49.238;8.092;2023-06-19T07:20:51;7.72;;;4.93;;
68858;SDS011;55864;49.238;8.092;2023-06-19T07:22:51;9.43;;;4.55;;
68858;SDS011;55864;49.238;8.092;2023-06-19T07:24:52;9.52;;;5.65;;
68858;SDS011;55864;49.238;8.092;2023-06-19T07:26:53;8.95;;;5.10;;
68858;SDS011;55864;49.238;8.092;2023-06-19T07:28:53;8.95;;;5.22;;
68858;SDS011;55864;49.238;8.092;2023-06-19T07:30:54;10.43;;;5.13;;
68858;SDS011;55864;49.238;8.092;2023-06-19T07:32:54;13.40;;;5.03;;
68858;SDS011;55864;49.238;8.092;2023-06-19T07:34:56;7.68;;;4.90;;
68858;SDS011;55864;49.238;8.092;2023-06-19T07:36:57;9.93;;;5.25;;
68858;SDS011;55864;49.238;8.092;2023-06-19T07:38:57;7.93;;;4.88;;
68858;SDS011;55864;49.238;8.092;2023-06-19T07:40:57;8.68;;;5.38;;
68858;SDS011;55864;49.238;8.092;2023-06-19T07:42:58;9.75;;;4.90;;
68858;SDS011;55864;49.238;8.092;2023-06-19T07:44:58;12.63;;;5.25;;
68858;SDS011;55864;49.238;8.092;2023-06-19T07:46:59;9.48;;;5.13;;
68858;SDS011;55864;49.238;8.092;2023-06-19T07:48:59;10.65;;;5.13;;
68858;SDS011;55864;49.238;8.092;2023-06-19T07:51:01;10.18;;;5.10;;
68858;SDS011;55864;49.238;8.092;2023-06-19T07:53:02;9.40;;;5.28;;
68858;SDS011;55864;49.238;8.092;2023-06-19T07:55:02;10.55;;;5.47;;
68858;SDS011;55864;49.238;8.092;2023-06-19T07:57:04;9.27;;;5.45;;
68858;SDS011;55864;49.238;8.092;2023-06-19T07:59:04;8.00;;;5.35;;
68858;SDS011;55864;49.238;8.092;2023-06-19T08:01:05;10.75;;;5.38;;
68858;SDS011;55864;49.238;8.092;2023-06-19T08:03:05;9.85;;;5.10;;
68858;SDS011;55864;49.238;8.092;2023-06-19T08:05:06;10.30;;;5.35;;
68858;SDS011;55864;49.238;8.092;2023-06-19T08:07:09;9.02;;;5.28;;
68858;SDS011;55864;49.238;8.092;2023-06-19T08:09:09;8.95;;;5.25;;
68858;SDS011;55864;49.238;8.092;2023-06-19T08:11:10;10.55;;;5.47;;
68858;SDS011;55864;49.238;8.092;2023-06-19T08:13:10;9.50;;;5.55;;
68858;SDS011;55864;49.238;8.092;2023-06-19T08:15:11;10.13;;;5.00;;
68858;SDS011;55864;49.238;8.092;2023-06-19T08:17:12;10.80;;;5.10;;
68858;SDS011;55864;49.238;8.092;2023-06-19T08:19:12;9.32;;;5.50;;
68858;SDS011;55864;49.238;8.092;2023-06-19T08:21:13;10.63;;;5.18;;
68858;SDS011;55864;49.238;8.092;2023-06-19T08:23:15;9.07;;;5.05;;
68858;SDS011;55864;49.238;8.092;2023-06-19T08:25:15;14.93;;;5.63;;
68858;SDS011;55864;49.238;8.092;2023-06-19T08:27:16;8.68;;;5.10;;
68858;SDS011;55864;49.238;8.092;2023-06-19T08:29:17;10.95;;;5.32;;
68858;SDS011;55864;49.238;8.092;2023-06-19T08:31:17;7.97;;;5.10;;
68858;SDS011;55864;49.238;8.092;2023-06-19T08:33:18;7.93;;;5.05;;
68858;SDS011;55864;49.238;8.092;2023-06-19T08:35:18;9.63;;;5.15;;
68858;SDS011;55864;49.238;8.092;2023-06-19T08:37:19;12.95;;;5.38;;
68858;SDS011;55864;49.238;8.092;2023-06-19T08:39:21;8.98;;;5.20;;
68858;SDS011;55864;49.238;8.092;2023-06-19T08:41:21;8.70;;;5.38;;
68858;SDS011;55864;49.238;8.092;2023-06-19T08:43:22;10.48;;;5.20;;
68858;SDS011;55864;49.238;8.092;2023-06-19T08:45:22;7.85;;;4.60;;
68858;SDS011;55864;49.238;8.092;2023-06-19T08:47:28;10.27;;;5.30;;
68858;SDS011;55864;49.238;8.092;2023-06-19T08:49:29;8.10;;;5.30;;
68858;SDS011;55864;49.238;8.092;2023-06-19T08:51:30;8.90;;;5.20;;
68858;SDS011;55864;49.238;8.092;2023-06-19T08:53:32;9.10;;;5.10;;
68858;SDS011;55864;49.238;8.092;2023-06-19T08:55:34;9.40;;;5.63;;
68858;SDS011;55864;49.238;8.092;2023-06-19T08:57:35;13.20;;;5.15;;
68858;SDS011;55864;49.238;8.092;2023-06-19T08:59:37;8.07;;;5.00;;
68858;SDS011;55864;49.238;8.092;2023-06-19T09:01:38;9.30;;;5.40;;
68858;SDS011;55864;49.238;8.092;2023-06-19T09:03:39;8.30;;;5.30;;
68858;SDS011;55864;49.238;8.092;2023-06-19T09:05:40;8.73;;;4.90;;
68858;SDS011;55864;49.238;8.092;2023-06-19T09:07:41;8.88;;;4.93;;
68858;SDS011;55864;49.238;8.092;2023-06-19T09:09:44;8.38;;;4.93;;
68858;SDS011;55864;49.238;8.092;2023-06-19T09:11:56;8.93;;;4.80;;
68858;SDS011;55864;49.238;8.092;2023-06-19T09:13:57;9.30;;;5.18;;
68858;SDS011;55864;49.238;8.092;2023-06-19T09:15:58;8.35;;;4.78;;
68858;SDS011;55864;49.238;8.092;2023-06-19T09:18:03;8.43;;;5.00;;
68858;SDS011;55864;49.238;8.092;2023-06-19T09:20:06;8.40;;;5.38;;
68858;SDS011;55864;49.238;8.092;2023-06-19T09:22:07;8.93;;;4.87;;
68858;SDS011;55864;49.238;8.092;2023-06-19T09:24:08;9.25;;;5.15;;
68858;SDS011;55864;49.238;8.092;2023-06-19T09:26:09;9.32;;;5.20;;
68858;SDS011;55864;49.238;8.092;2023-06-19T09:28:17;9.77;;;4.97;;
68858;SDS011;55864;49.238;8.092;2023-06-19T09:30:18;8.45;;;5.30;;
68858;SDS011;55864;49.238;8.092;2023-06-19T09:32:21;8.35;;;5.00;;
68858;SDS011;55864;49.238;8.092;2023-06-19T09:34:24;10.77;;;5.05;;
68858;SDS011;55864;49.238;8.092;2023-06-19T09:36:24;8.05;;;4.93;;
68858;SDS011;55864;49.238;8.092;2023-06-19T09:38:26;8.40;;;5.05;;
68858;SDS011;55864;49.238;8.092;2023-06-19T09:40:27;7.93;;;5.07;;
68858;SDS011;55864;49.238;8.092;2023-06-19T09:42:29;10.23;;;4.97;;
68858;SDS011;55864;49.238;8.092;2023-06-19T09:44:34;8.63;;;5.07;;
68858;SDS011;55864;49.238;8.092;2023-06-19T09:46:39;12.57;;;6.50;;
68858;SDS011;55864;49.238;8.092;2023-06-19T09:48:45;7.82;;;5.20;;
68858;SDS011;55864;49.238;8.092;2023-06-19T09:50:46;10.30;;;4.60;;
68858;SDS011;55864;49.238;8.092;2023-06-19T09:52:50;7.70;;;4.70;;
68858;SDS011;55864;49.238;8.092;2023-06-19T09:54:51;7.43;;;4.20;;
68858;SDS011;55864;49.238;8.092;2023-06-19T09:56:52;7.32;;;4.45;;
68858;SDS011;55864;49.238;8.092;2023-06-19T10:00:59;9.18;;;4.35;;
68858;SDS011;55864;49.238;8.092;2023-06-19T10:03:00;9.32;;;4.05;;
68858;SDS011;55864;49.238;8.092;2023-06-19T10:05:00;10.55;;;4.70;;
68858;SDS011;55864;49.238;8.092;2023-06-19T10:07:01;9.15;;;4.50;;
68858;SDS011;55864;49.238;8.092;2023-06-19T10:09:08;7.88;;;4.30;;
68858;SDS011;55864;49.238;8.092;2023-06-19T10:11:09;9.35;;;4.43;;
68858;SDS011;55864;49.238;8.092;2023-06-19T10:13:14;9.15;;;4.25;;
68858;SDS011;55864;49.238;8.092;2023-06-19T10:15:16;6.57;;;4.20;;
68858;SDS011;55864;49.238;8.092;2023-06-19T10:17:19;7.47;;;4.10;;
68858;SDS011;55864;49.238;8.092;2023-06-19T10:19:20;6.93;;;4.15;;
68858;SDS011;55864;49.238;8.092;2023-06-19T10:21:22;8.13;;;4.75;;
68858;SDS011;55864;49.238;8.092;2023-06-19T10:23:22;7.30;;;4.30;;
68858;SDS011;55864;49.238;8.092;2023-06-19T10:25:26;6.83;;;4.27;;
68858;SDS011;55864;49.238;8.092;2023-06-19T10:27:28;8.45;;;4.10;;
68858;SDS011;55864;49.238;8.092;2023-06-19T10:29:37;7.18;;;4.28;;
68858;SDS011;55864;49.238;8.092;2023-06-19T10:31:39;7.73;;;4.67;;
68858;SDS011;55864;49.238;8.092;2023-06-19T10:33:41;9.05;;;4.50;;
68858;SDS011;55864;49.238;8.092;2023-06-19T10:35:41;8.97;;;4.80;;
68858;SDS011;55864;49.238;8.092;2023-06-19T10:37:42;8.52;;;4.90;;
68858;SDS011;55864;49.238;8.092;2023-06-19T10:39:43;7.57;;;4.50;;
68858;SDS011;55864;49.238;8.092;2023-06-19T10:41:44;8.52;;;4.15;;
68858;SDS011;55864;49.238;8.092;2023-06-19T10:43:52;9.63;;;4.60;;
68858;SDS011;55864;49.238;8.092;2023-06-19T10:45:53;8.13;;;4.55;;
68858;SDS011;55864;49.238;8.092;2023-06-19T10:47:54;8.68;;;4.88;;
68858;SDS011;55864;49.238;8.092;2023-06-19T10:49:57;8.60;;;4.80;;
68858;SDS011;55864;49.238;8.092;2023-06-19T10:51:58;9.50;;;4.87;;
68858;SDS011;55864;49.238;8.092;2023-06-19T10:53:59;7.22;;;4.20;;
68858;SDS011;55864;49.238;8.092;2023-06-19T10:56:00;7.22;;;4.43;;
68858;SDS011;55864;49.238;8.092;2023-06-19T10:58:02;7.53;;;4.45;;
68858;SDS011;55864;49.238;8.092;2023-06-19T11:00:03;7.35;;;4.20;;
68858;SDS011;55864;49.238;8.092;2023-06-19T11:02:04;7.07;;;4.40;;
68858;SDS011;55864;49.238;8.092;2023-06-19T11:04:05;8.13;;;4.05;;
68858;SDS011;55864;49.238;8.092;2023-06-19T11:06:08;6.83;;;4.00;;
68858;SDS011;55864;49.238;8.092;2023-06-19T11:08:08;6.97;;;4.20;;
68858;SDS011;55864;49.238;8.092;2023-06-19T11:10:09;6.13;;;3.97;;
68858;SDS011;55864;49.238;8.092;2023-06-19T11:12:19;9.15;;;3.75;;
68858;SDS011;55864;49.238;8.092;2023-06-19T11:14:20;7.28;;;4.05;;
68858;SDS011;55864;49.238;8.092;2023-06-19T11:16:21;6.47;;;3.80;;
68858;SDS011;55864;49.238;8.092;2023-06-19T11:18:22;5.90;;;3.67;;
68858;SDS011;55864;49.238;8.092;2023-06-19T11:20:22;8.63;;;4.55;;
68858;SDS011;55864;49.238;8.092;2023-06-19T11:22:33;7.20;;;4.63;;
68858;SDS011;55864;49.238;8.092;2023-06-19T11:24:36;7.57;;;4.55;;
68858;SDS011;55864;49.238;8.092;2023-06-19T11:26:37;7.82;;;4.32;;
68858;SDS011;55864;49.238;8.092;2023-06-19T11:28:38;6.57;;;4.20;;
68858;SDS011;55864;49.238;8.092;2023-06-19T11:30:39;6.90;;;4.30;;
68858;SDS011;55864;49.238;8.092;2023-06-19T11:32:39;11.02;;;4.10;;
68858;SDS011;55864;49.238;8.092;2023-06-19T11:34:40;7.97;;;3.83;;
68858;SDS011;55864;49.238;8.092;2023-06-19T11:36:41;6.88;;;3.88;;
68858;SDS011;55864;49.238;8.092;2023-06-19T11:38:44;10.07;;;4.00;;
68858;SDS011;55864;49.238;8.092;2023-06-19T11:40:45;6.57;;;4.20;;
68858;SDS011;55864;49.238;8.092;2023-06-19T11:42:46;6.47;;;3.75;;
68858;SDS011;55864;49.238;8.092;2023-06-19T11:44:53;6.85;;;3.80;;
68858;SDS011;55864;49.238;8.092;2023-06-19T11:46:56;8.07;;;4.00;;
68858;SDS011;55864;49.238;8.092;2023-06-19T11:49:06;6.00;;;3.65;;
68858;SDS011;55864;49.238;8.092;2023-06-19T11:51:08;7.22;;;4.10;;
68858;SDS011;55864;49.238;8.092;2023-06-19T11:53:09;6.32;;;3.80;;
68858;SDS011;55864;49.238;8.092;2023-06-19T11:55:10;8.40;;;4.05;;
68858;SDS011;55864;49.238;8.092;2023-06-19T11:57:12;9.68;;;4.20;;
68858;SDS011;55864;49.238;8.092;2023-06-19T11:59:12;8.07;;;3.90;;
68858;SDS011;55864;49.238;8.092;2023-06-19T12:01:13;6.13;;;3.65;;
68858;SDS011;55864;49.238;8.092;2023-06-19T12:03:13;7.78;;;3.55;;
68858;SDS011;55864;49.238;8.092;2023-06-19T12:05:14;5.72;;;3.38;;
68858;SDS011;55864;49.238;8.092;2023-06-19T12:07:14;6.72;;;3.55;;
68858;SDS011;55864;49.238;8.092;2023-06-19T12:09:15;7.68;;;3.55;;
68858;SDS011;55864;49.238;8.092;2023-06-19T12:11:17;6.95;;;3.40;;
68858;SDS011;55864;49.238;8.092;2023-06-19T12:13:17;5.97;;;3.30;;